Time;durP1;ratioP1;P1;durP2;ratioP2;P2;SDS_P1;SDS_P2;PMS_P1;PMS_P2;Temp;Humidity;BMP_temperature;BMP_pressure;BME280_temperature;BME280_humidity;BME280_pressure;Samples;Min_cycle;Max_cycle;Signal;HPM_P1;HPM_P2
2023/09/06 00:00:32;;;;;;;7.78;5.72;;;;;;;16.81;100.00;101856.56;6185489;23;20058;-79
2023/09/06 00:02:58;;;;;;;7.43;5.15;;;;;;;16.79;100.00;101857.59;6183670;23;20480;-79
2023/09/06 00:05:24;;;;;;;6.85;5.03;;;;;;;16.83;100.00;101859.91;6175655;23;20005;-78
2023/09/06 00:07:50;;;;;;;7.50;4.65;;;;;;;16.79;100.00;101862.81;6185322;23;20015;-79
2023/09/06 00:10:15;;;;;;;8.05;5.80;;;;;;;16.73;100.00;101858.91;6186057;23;20020;-76
2023/09/06 00:12:41;;;;;;;8.60;5.47;;;;;;;16.72;100.00;101857.25;6185386;23;20414;-79
2023/09/06 00:15:10;;;;;;;7.30;4.95;;;;;;;16.58;100.00;101829.50;6185646;23;20001;-80
2023/09/06 00:17:37;;;;;;;7.47;5.32;;;;;;;16.70;100.00;101851.28;6185700;23;20011;-79
2023/09/06 00:20:20;;;;;;;9.32;5.78;;;;;;;16.70;100.00;101848.66;6185579;23;20185;-80
2023/09/06 00:22:53;;;;;;;8.80;5.13;;;;;;;16.40;100.00;101811.72;6185876;23;20009;-80
2023/09/06 00:25:18;;;;;;;6.93;5.20;;;;;;;16.62;100.00;101838.78;6185976;23;20064;-80
2023/09/06 00:27:44;;;;;;;9.20;5.30;;;;;;;16.49;100.00;101819.72;6185662;23;20001;-79
2023/09/06 00:30:10;;;;;;;8.50;5.72;;;;;;;16.32;100.00;101800.09;6158359;23;20385;-81
2023/09/06 00:32:35;;;;;;;7.70;5.50;;;;;;;16.50;100.00;101842.25;6185307;23;20029;-79
2023/09/06 00:35:00;;;;;;;7.95;5.47;;;;;;;16.53;100.00;101843.81;6158895;23;20084;-79
2023/09/06 00:37:37;;;;;;;8.30;6.10;;;;;;;16.45;100.00;101830.50;6185572;23;20009;-79
2023/09/06 00:40:12;;;;;;;7.57;5.47;;;;;;;16.46;100.00;101846.03;6185267;23;20084;-79
2023/09/06 00:42:37;;;;;;;6.97;5.45;;;;;;;16.44;100.00;101841.88;6185401;23;20001;-79
2023/09/06 00:45:03;;;;;;;7.63;5.25;;;;;;;16.39;100.00;101836.16;6185425;23;20016;-79
2023/09/06 00:47:28;;;;;;;7.93;5.85;;;;;;;16.32;100.00;101841.81;6185615;23;20005;-79
2023/09/06 00:49:55;;;;;;;7.93;5.43;;;;;;;16.13;100.00;101819.78;6185294;23;19997;-79
2023/09/06 00:52:20;;;;;;;9.05;5.47;;;;;;;16.30;100.00;101843.66;6185273;23;20008;-79
2023/09/06 00:54:46;;;;;;;8.30;5.63;;;;;;;16.19;100.00;101837.56;6185258;23;20419;-79
2023/09/06 00:57:12;;;;;;;6.80;5.82;;;;;;;16.18;100.00;101847.16;6158500;23;20016;-79
2023/09/06 00:59:39;;;;;;;8.45;5.97;;;;;;;16.16;100.00;101853.41;6184900;23;20052;-79
2023/09/06 01:02:04;;;;;;;8.65;6.00;;;;;;;16.18;100.00;101860.19;6185385;23;20015;-78
2023/09/06 01:04:30;;;;;;;8.50;5.47;;;;;;;16.14;100.00;101860.53;6185116;23;20435;-79
2023/09/06 01:06:57;;;;;;;9.45;6.07;;;;;;;16.12;100.00;101864.97;6184875;23;20441;-79
2023/09/06 01:09:23;;;;;;;7.65;5.45;;;;;;;15.97;100.00;101843.44;6185402;23;20369;-79
2023/09/06 01:11:48;;;;;;;8.25;6.25;;;;;;;16.02;100.00;101860.41;6185194;23;20095;-79
2023/09/06 01:14:14;;;;;;;8.15;5.80;;;;;;;15.95;100.00;101853.16;6184732;23;20001;-79
2023/09/06 01:16:44;;;;;;;8.98;6.65;;;;;;;15.95;100.00;101868.78;6184915;23;20009;-80
2023/09/06 01:19:12;;;;;;;9.00;6.38;;;;;;;15.91;100.00;101862.09;6185316;23;20331;-79
2023/09/06 01:22:08;;;;;;;8.75;6.15;;;;;;;15.92;100.00;101868.97;6185206;23;20316;-79
2023/09/06 01:24:35;;;;;;;8.40;6.32;;;;;;;15.84;100.00;101859.09;6184774;23;20008;-79
2023/09/06 01:27:01;;;;;;;9.32;6.43;;;;;;;15.78;100.00;101860.34;6184892;23;20055;-79
2023/09/06 01:29:29;;;;;;;8.25;6.45;;;;;;;15.72;100.00;101858.13;6184785;23;20402;-78
2023/09/06 01:31:54;;;;;;;11.30;7.10;;;;;;;15.69;100.00;101853.16;6185172;23;20001;-79
2023/09/06 01:34:19;;;;;;;7.93;6.50;;;;;;;15.71;100.00;101866.91;6184920;23;20139;-78
2023/09/06 01:36:45;;;;;;;9.25;7.25;;;;;;;15.70;100.00;101864.41;6184994;23;20017;-79
2023/09/06 01:39:10;;;;;;;10.50;7.00;;;;;;;15.67;100.00;101860.25;6185071;23;20029;-79
2023/09/06 01:41:35;;;;;;;7.55;6.25;;;;;;;15.67;100.00;101862.84;6185033;23;20387;-79
2023/09/06 01:44:01;;;;;;;9.32;6.97;;;;;;;15.48;100.00;101839.78;6184777;23;20012;-78
2023/09/06 01:46:26;;;;;;;9.02;7.15;;;;;;;15.58;100.00;101858.22;6185074;23;20056;-79
2023/09/06 01:48:52;;;;;;;7.57;6.57;;;;;;;15.60;100.00;101860.72;6184706;23;20416;-79
2023/09/06 01:51:17;;;;;;;8.77;6.63;;;;;;;15.58;100.00;101857.41;6184865;23;20412;-78
2023/09/06 01:53:43;;;;;;;10.98;7.10;;;;;;;15.54;100.00;101863.75;6184811;23;20005;-78
2023/09/06 01:56:08;;;;;;;9.35;7.43;;;;;;;15.50;100.00;101857.91;6184978;23;20059;-79
2023/09/06 01:58:34;;;;;;;10.32;6.90;;;;;;;15.47;100.00;101852.91;6184452;23;20330;-79
2023/09/06 02:01:00;;;;;;;8.82;6.78;;;;;;;15.52;100.00;101861.22;6184852;23;20002;-79
2023/09/06 02:03:29;;;;;;;8.32;6.72;;;;;;;15.55;100.00;101862.81;6185588;23;20359;-79
2023/09/06 02:05:54;;;;;;;8.25;7.07;;;;;;;15.44;100.00;101851.34;6186625;23;20139;-79
2023/09/06 02:08:21;;;;;;;9.13;7.88;;;;;;;15.49;100.00;101862.28;6186586;23;20355;-79
2023/09/06 02:10:46;;;;;;;10.10;7.28;;;;;;;15.46;100.00;101869.47;6186670;23;20009;-78
2023/09/06 02:13:12;;;;;;;9.38;6.95;;;;;;;15.41;100.00;101853.31;6187000;23;20370;-79
2023/09/06 02:15:38;;;;;;;10.05;7.03;;;;;;;15.38;100.00;101864.78;6186250;23;20005;-81
2023/09/06 02:18:04;;;;;;;10.20;7.32;;;;;;;15.34;100.00;101857.25;6187098;23;20005;-79
2023/09/06 02:20:30;;;;;;;10.63;7.22;;;;;;;15.40;100.00;101865.50;6186776;23;20008;-79
2023/09/06 02:22:56;;;;;;;9.55;6.90;;;;;;;15.27;100.00;101856.00;6186684;23;20005;-79
2023/09/06 02:25:33;;;;;;;8.75;6.60;;;;;;;15.18;100.00;101847.88;6186998;23;19997;-79
2023/09/06 02:28:05;;;;;;;9.15;6.85;;;;;;;15.29;100.00;101865.38;6186605;23;20064;-79
2023/09/06 02:30:31;;;;;;;8.10;6.95;;;;;;;15.31;100.00;101870.47;6186490;23;20016;-79
2023/09/06 02:32:56;;;;;;;9.65;7.03;;;;;;;15.27;100.00;101866.44;6186851;23;20001;-79
2023/09/06 02:35:22;;;;;;;8.57;7.18;;;;;;;15.19;100.00;101862.56;6186606;23;20016;-79
2023/09/06 02:37:48;;;;;;;10.20;7.35;;;;;;;15.23;100.00;101873.56;6186191;23;20005;-79
2023/09/06 02:40:13;;;;;;;9.52;6.70;;;;;;;15.24;100.00;101874.41;6186759;23;20005;-79
2023/09/06 02:42:40;;;;;;;9.65;7.20;;;;;;;15.04;100.00;101854.91;6186617;23;20005;-79
2023/09/06 02:45:09;;;;;;;9.25;6.97;;;;;;;15.02;100.00;101847.22;6186227;23;20013;-79
2023/09/06 02:47:38;;;;;;;10.15;7.63;;;;;;;15.11;100.00;101871.78;6186206;23;20001;-78
2023/09/06 02:50:05;;;;;;;11.27;7.75;;;;;;;15.08;100.00;101878.03;6186098;23;20055;-79
2023/09/06 02:52:35;;;;;;;9.30;7.40;;;;;;;15.02;100.00;101872.38;6186132;23;20047;-79
2023/09/06 02:55:10;;;;;;;10.50;7.28;;;;;;;15.03;100.00;101885.28;6186657;23;20386;-79
2023/09/06 02:57:36;;;;;;;8.52;7.07;;;;;;;15.00;100.00;101877.69;6186364;23;20012;-80
2023/09/06 03:00:08;;;;;;;9.52;7.30;;;;;;;14.98;100.00;101879.56;6186198;23;20031;-79
2023/09/06 03:02:33;;;;;;;9.50;7.57;;;;;;;14.93;100.00;101882.44;6159811;23;20013;-78
2023/09/06 03:05:03;;;;;;;11.65;7.63;;;;;;;14.79;100.00;101859.09;6186286;23;20031;-79
2023/09/06 03:07:31;;;;;;;9.90;7.90;;;;;;;14.85;100.00;101876.09;6185792;23;20009;-79
2023/09/06 03:09:57;;;;;;;10.38;7.55;;;;;;;14.85;100.00;101881.28;6186291;23;20422;-79
2023/09/06 03:12:22;;;;;;;10.20;7.65;;;;;;;14.81;100.00;101890.22;6186299;23;19997;-77
2023/09/06 03:14:48;;;;;;;9.43;7.68;;;;;;;14.80;100.00;101880.75;6185428;23;20005;-78
2023/09/06 03:17:22;;;;;;;8.52;7.22;;;;;;;14.63;100.00;101871.41;6186159;23;20013;-78
2023/09/06 03:19:53;;;;;;;9.30;7.53;;;;;;;14.72;100.00;101888.19;6186170;23;20415;-80
2023/09/06 03:22:21;;;;;;;9.55;7.75;;;;;;;14.70;100.00;101882.25;6186123;23;20115;-78
2023/09/06 03:24:46;;;;;;;9.85;7.97;;;;;;;14.59;100.00;101877.75;6186219;23;20005;-78
2023/09/06 03:27:16;;;;;;;10.45;8.10;;;;;;;14.62;100.00;101872.34;6185991;23;20373;-79
2023/09/06 03:29:42;;;;;;;10.20;8.13;;;;;;;14.48;100.00;101868.03;6185958;23;20005;-80
2023/09/06 03:32:08;;;;;;;9.57;8.55;;;;;;;14.33;100.00;101848.16;6186175;23;20380;-80
2023/09/06 03:34:37;;;;;;;10.77;9.40;;;;;;;14.56;100.00;101889.19;6186198;23;20327;-79
2023/09/06 03:37:08;;;;;;;11.48;8.20;;;;;;;14.35;100.00;101854.94;6186095;23;20005;-80
2023/09/06 03:39:42;;;;;;;10.40;8.60;;;;;;;14.47;100.00;101874.16;6186374;23;20044;-79
2023/09/06 03:42:08;;;;;;;10.52;7.70;;;;;;;14.51;100.00;101885.19;6185858;23;20005;-79
2023/09/06 03:44:37;;;;;;;9.43;8.10;;;;;;;14.49;100.00;101889.66;6186124;23;20005;-78
2023/09/06 03:47:05;;;;;;;10.95;8.68;;;;;;;14.44;100.00;101895.09;6182979;23;20154;-79
2023/09/06 03:49:34;;;;;;;12.18;8.38;;;;;;;14.46;100.00;101884.66;6185770;23;20001;-80
2023/09/06 03:52:00;;;;;;;11.25;9.40;;;;;;;14.45;100.00;101886.38;6186198;23;20005;-79
2023/09/06 03:54:25;;;;;;;11.40;8.68;;;;;;;14.45;100.00;101890.75;6186243;23;20052;-79
2023/09/06 03:56:50;;;;;;;9.32;8.38;;;;;;;14.40;100.00;101891.03;6185913;23;20094;-80
2023/09/06 03:59:16;;;;;;;12.68;9.45;;;;;;;14.41;100.00;101899.66;6186260;23;20009;-79
2023/09/06 04:01:43;;;;;;;10.35;8.85;;;;;;;14.24;100.00;101870.34;6185426;23;20074;-79
2023/09/06 04:04:09;;;;;;;10.80;9.45;;;;;;;14.35;100.00;101904.31;6185785;23;20331;-79
2023/09/06 04:06:35;;;;;;;10.40;9.07;;;;;;;14.34;100.00;101896.59;6185608;23;20009;-78
2023/09/06 04:09:00;;;;;;;9.80;8.80;;;;;;;14.25;100.00;101885.00;6185779;23;20016;-79
2023/09/06 04:11:26;;;;;;;12.55;9.40;;;;;;;14.31;100.00;101900.22;6185598;23;20008;-78
2023/09/06 04:13:51;;;;;;;10.88;9.18;;;;;;;14.19;100.00;101887.97;6185893;23;20075;-79
2023/09/06 04:16:16;;;;;;;10.00;8.88;;;;;;;14.28;100.00;101909.97;6185510;23;20091;-80
2023/09/06 04:18:42;;;;;;;11.65;8.73;;;;;;;14.21;100.00;101906.06;6185670;23;20076;-79
2023/09/06 04:21:10;;;;;;;11.85;8.95;;;;;;;14.21;100.00;101904.31;6185847;23;20005;-80
2023/09/06 04:23:36;;;;;;;13.20;9.80;;;;;;;14.15;100.00;101903.84;6158239;23;20009;-79
2023/09/06 04:26:03;;;;;;;10.35;9.02;;;;;;;14.18;100.00;101909.69;6185448;23;20354;-80
2023/09/06 04:28:29;;;;;;;13.60;9.85;;;;;;;14.10;100.00;101904.13;6185553;23;20423;-79
2023/09/06 04:30:54;;;;;;;10.75;9.63;;;;;;;14.14;100.00;101915.16;6185282;23;20005;-79
2023/09/06 04:33:20;;;;;;;10.13;9.10;;;;;;;13.89;100.00;101875.09;6185178;23;20008;-79
2023/09/06 04:35:47;;;;;;;12.20;10.13;;;;;;;13.98;100.00;101894.50;6185086;23;20059;-80
2023/09/06 04:38:16;;;;;;;11.18;9.98;;;;;;;13.88;100.00;101889.00;6185460;23;20005;-78
2023/09/06 04:40:43;;;;;;;11.10;10.00;;;;;;;14.03;100.00;101914.03;6185259;23;20311;-80
2023/09/06 04:43:09;;;;;;;12.13;10.88;;;;;;;13.99;100.00;101898.75;6185770;23;20004;-79
2023/09/06 04:45:38;;;;;;;12.70;10.10;;;;;;;14.01;100.00;101909.88;6185192;23;20326;-79
2023/09/06 04:48:05;;;;;;;12.18;10.90;;;;;;;13.94;100.00;101904.19;6185207;23;20008;-79
2023/09/06 04:50:30;;;;;;;11.77;9.98;;;;;;;13.99;100.00;101917.75;6185060;23;20009;-79
2023/09/06 04:52:56;;;;;;;14.07;9.95;;;;;;;13.98;100.00;101916.09;6185513;23;20354;-79
2023/09/06 04:55:21;;;;;;;12.30;10.15;;;;;;;14.05;100.00;101921.75;6185269;23;20089;-79
2023/09/06 04:57:47;;;;;;;11.80;10.60;;;;;;;13.89;100.00;101902.81;6185221;23;20005;-80
2023/09/06 05:00:30;;;;;;;11.50;10.30;;;;;;;14.01;100.00;101930.66;6185546;23;20056;-80
2023/09/06 05:02:57;;;;;;;13.75;10.80;;;;;;;13.99;100.00;101922.97;6184935;23;20036;-79
2023/09/06 05:05:22;;;;;;;11.90;9.98;;;;;;;13.98;100.00;101936.88;6185415;23;20001;-80
2023/09/06 05:07:48;;;;;;;13.40;10.25;;;;;;;13.94;100.00;101921.56;6184986;23;20035;-80
2023/09/06 05:10:13;;;;;;;12.88;10.60;;;;;;;13.97;100.00;101922.22;6185113;23;20016;-81
2023/09/06 05:12:40;;;;;;;12.10;10.85;;;;;;;13.87;100.00;101904.69;6184971;23;20005;-81
2023/09/06 05:15:07;;;;;;;14.45;11.18;;;;;;;14.02;100.00;101924.53;6184973;23;20005;-80
2023/09/06 05:17:33;;;;;;;14.02;10.50;;;;;;;14.16;100.00;101929.75;6185154;23;20004;-81
2023/09/06 05:20:33;;;;;;;12.25;10.63;;;;;;;14.36;100.00;101944.13;6185083;23;20009;-81
2023/09/06 05:23:03;;;;;;;12.75;11.13;;;;;;;14.56;100.00;101945.53;6184873;23;20008;-82
2023/09/06 05:25:29;;;;;;;13.95;11.13;;;;;;;14.72;100.00;101945.41;6184914;23;20005;-82
2023/09/06 05:28:00;;;;;;;11.70;10.50;;;;;;;14.83;100.00;101940.34;6184711;23;20076;-79
2023/09/06 05:30:26;;;;;;;13.32;11.27;;;;;;;14.86;100.00;101946.22;6184790;23;20005;-80
2023/09/06 05:32:53;;;;;;;12.90;10.57;;;;;;;14.96;100.00;101943.88;6184885;23;20005;-79
2023/09/06 05:35:19;;;;;;;16.85;12.38;;;;;;;15.00;100.00;101953.13;6185046;23;20009;-78
2023/09/06 05:37:44;;;;;;;13.70;12.23;;;;;;;15.09;100.00;101955.16;6184821;23;20008;-80
2023/09/06 05:40:12;;;;;;;14.00;11.65;;;;;;;15.25;100.00;101952.41;6184610;23;20339;-80
2023/09/06 05:42:38;;;;;;;12.30;10.57;;;;;;;15.21;100.00;101914.47;6184880;23;20005;-81
2023/09/06 05:45:04;;;;;;;13.18;11.88;;;;;;;15.43;100.00;101950.34;6184815;23;20012;-81
2023/09/06 05:47:30;;;;;;;13.00;11.32;;;;;;;15.50;100.00;101951.63;6184875;23;20316;-81
2023/09/06 05:49:58;;;;;;;14.48;11.93;;;;;;;15.56;100.00;101951.22;6184774;23;20007;-81
2023/09/06 05:52:23;;;;;;;12.88;10.35;;;;;;;15.69;100.00;101944.28;6184522;23;20055;-81
2023/09/06 05:54:49;;;;;;;13.23;11.80;;;;;;;15.76;100.00;101957.75;6184741;23;20009;-79
2023/09/06 05:57:14;;;;;;;14.88;12.00;;;;;;;15.84;100.00;101957.25;6184694;23;20083;-81
2023/09/06 05:59:40;;;;;;;14.25;12.05;;;;;;;15.86;100.00;101957.97;6184726;23;20001;-79
2023/09/06 06:02:07;;;;;;;17.73;12.30;;;;;;;15.99;100.00;101959.63;6184669;23;20005;-80
2023/09/06 06:04:32;;;;;;;14.15;12.23;;;;;;;15.95;100.00;101937.34;6184463;23;20001;-80
2023/09/06 06:06:57;;;;;;;13.90;11.18;;;;;;;16.23;100.00;101956.31;6184525;23;20159;-79
2023/09/06 06:09:24;;;;;;;16.02;12.77;;;;;;;16.21;100.00;101955.56;6184441;23;20442;-79
2023/09/06 06:11:53;;;;;;;13.45;12.07;;;;;;;16.39;100.00;101953.47;6158092;23;20013;-79
2023/09/06 06:14:20;;;;;;;14.05;11.52;;;;;;;16.61;100.00;101974.47;6184686;23;20036;-80
2023/09/06 06:16:45;;;;;;;14.20;11.93;;;;;;;16.85;100.00;101971.97;6158477;23;20012;-80
2023/09/06 06:19:11;;;;;;;13.32;11.10;;;;;;;17.51;100.00;101967.19;6184819;23;20083;-80
2023/09/06 06:21:37;;;;;;;14.45;9.95;;;;;;;17.84;100.00;101938.53;6184820;23;20422;-82
2023/09/06 06:24:04;;;;;;;16.15;12.60;;;;;;;18.33;100.00;101953.91;6184542;23;20036;-81
2023/09/06 06:26:30;;;;;;;12.57;10.30;;;;;;;20.02;99.76;101970.72;6184631;23;19997;-81
2023/09/06 06:28:55;;;;;;;14.13;10.55;;;;;;;21.73;89.41;101970.53;6156915;23;20339;-80
2023/09/06 06:31:21;;;;;;;11.55;9.93;;;;;;;23.12;79.62;101983.63;6185506;23;20011;-82
2023/09/06 06:33:46;;;;;;;11.60;9.25;;;;;;;24.29;72.82;101982.31;6184494;23;20477;-81
2023/09/06 06:36:11;;;;;;;10.48;7.57;;;;;;;25.27;66.53;101985.25;6184417;23;20009;-82
2023/09/06 06:38:36;;;;;;;10.02;7.70;;;;;;;25.96;63.27;101986.53;6184624;23;20028;-81
2023/09/06 06:41:02;;;;;;;12.77;8.48;;;;;;;26.49;60.23;101984.22;6158045;23;20013;-81
2023/09/06 06:43:28;;;;;;;11.82;7.10;;;;;;;26.76;57.74;101974.97;6185012;23;20346;-82
2023/09/06 06:45:54;;;;;;;8.57;7.20;;;;;;;27.32;57.03;101989.66;6184675;23;20005;-79
2023/09/06 06:48:20;;;;;;;10.98;7.10;;;;;;;27.66;54.28;101983.91;6184604;23;20359;-78
2023/09/06 06:50:46;;;;;;;10.40;7.45;;;;;;;27.76;52.07;101946.50;6186723;23;20009;-80
2023/09/06 06:53:11;;;;;;;13.70;7.32;;;;;;;28.29;50.96;101960.47;6186973;23;20080;-80
2023/09/06 06:56:09;;;;;;;9.15;5.95;;;;;;;28.68;50.45;101980.56;6186694;23;20013;-82
2023/09/06 06:58:40;;;;;;;8.65;6.95;;;;;;;29.00;49.93;101997.88;6095289;23;20013;-81
2023/09/06 07:01:16;;;;;;;;;;;;;;;29.64;60.04;101990.69;6096430;23;20089;-81
2023/09/06 07:03:59;;;;;;;12.20;7.50;;;;;;;28.33;52.80;101929.91;6070824;23;19915;-81
2023/09/06 07:06:30;;;;;;;8.52;7.13;;;;;;;25.89;55.54;101855.88;6093193;23;20069;-81
2023/09/06 07:08:57;;;;;;;10.45;7.53;;;;;;;24.29;58.57;101855.63;6095443;23;20006;-82
2023/09/06 07:11:23;;;;;;;13.00;7.30;;;;;;;23.97;64.00;101998.78;6095475;23;20006;-81
2023/09/06 07:13:49;;;;;;;9.75;7.75;;;;;;;22.55;69.22;101911.91;6095375;23;20070;-81
2023/09/06 07:16:17;;;;;;;9.68;8.23;;;;;;;22.39;71.61;101995.94;6095209;23;20015;-82
2023/09/06 07:18:43;;;;;;;8.27;7.07;;;;;;;21.92;74.43;101993.28;6094682;23;20030;-82
2023/09/06 07:21:08;;;;;;;12.13;8.15;;;;;;;21.34;77.29;101969.72;6095170;23;20070;-82
2023/09/06 07:23:33;;;;;;;9.63;8.13;;;;;;;21.21;79.00;101990.97;6095334;23;20440;-82
2023/09/06 07:25:59;;;;;;;12.10;8.18;;;;;;;20.94;81.25;102002.13;6095347;23;20389;-82
2023/09/06 07:28:24;;;;;;;10.98;8.90;;;;;;;20.68;84.35;101999.19;6094505;23;20014;-79
2023/09/06 07:30:50;;;;;;;11.05;8.50;;;;;;;20.60;85.90;101996.41;6094348;23;20010;-80
2023/09/06 07:33:16;;;;;;;11.25;9.23;;;;;;;20.33;87.28;101958.41;6107025;23;20037;-81
2023/09/06 07:35:42;;;;;;;13.43;9.73;;;;;;;20.50;86.98;101990.28;6185356;23;20008;-82
2023/09/06 07:38:08;;;;;;;12.25;9.50;;;;;;;20.51;87.60;101994.56;6185849;23;20005;-83
2023/09/06 07:40:33;;;;;;;11.50;9.20;;;;;;;20.49;86.97;101997.31;6185959;23;20422;-83
2023/09/06 07:42:58;;;;;;;12.73;10.70;;;;;;;20.50;88.60;101990.28;6186194;23;20048;-83
2023/09/06 07:45:24;;;;;;;14.50;10.20;;;;;;;20.26;90.32;101949.44;6184741;23;20009;-83
2023/09/06 07:47:51;;;;;;;13.80;10.25;;;;;;;20.53;88.79;101997.88;6186366;23;20029;-82
2023/09/06 07:50:22;;;;;;;10.75;9.27;;;;;;;19.64;88.68;101836.84;6182881;23;20020;-82
2023/09/06 07:52:57;;;;;;;13.00;10.60;;;;;;;20.21;89.10;101920.13;6185721;23;20005;-80
2023/09/06 07:55:22;;;;;;;13.50;11.13;;;;;;;19.96;89.63;101874.25;6159394;23;20083;-81
2023/09/06 07:57:50;;;;;;;10.98;9.50;;;;;;;20.76;89.58;102001.97;6185930;23;20005;-83
2023/09/06 08:00:16;;;;;;;13.32;10.55;;;;;;;20.29;88.48;101915.06;6185701;23;20001;-81
2023/09/06 08:03:00;;;;;;;11.98;10.57;;;;;;;20.92;89.09;102002.28;6185508;23;20005;-78
2023/09/06 08:05:26;;;;;;;12.07;9.98;;;;;;;21.03;88.84;102000.50;6185270;23;20001;-78
2023/09/06 08:07:51;;;;;;;12.90;9.52;;;;;;;20.85;86.99;101974.91;6185813;23;20002;-79
2023/09/06 08:10:16;;;;;;;11.77;9.70;;;;;;;21.14;88.73;102008.28;6158264;23;20063;-78
2023/09/06 08:15:56;;;;;;;11.10;9.48;;;;;;;20.87;87.19;101943.28;6185323;23;20067;-79
2023/09/06 08:18:24;;;;;;;12.05;8.63;;;;;;;20.86;87.78;101934.56;6185873;23;20076;-78
2023/09/06 08:20:51;;;;;;;12.07;9.20;;;;;;;21.22;87.70;101984.75;6185300;23;20001;-79
2023/09/06 08:23:16;;;;;;;11.18;8.80;;;;;;;21.43;87.34;102003.88;6185304;23;20005;-78
2023/09/06 08:25:41;;;;;;;10.35;7.80;;;;;;;21.39;86.96;101994.59;6185526;23;20027;-77
2023/09/06 08:28:07;;;;;;;9.80;8.20;;;;;;;21.62;86.63;102012.72;6185772;23;20411;-77
2023/09/06 08:30:33;;;;;;;12.40;7.75;;;;;;;21.68;84.04;102007.72;6185513;23;20008;-76
2023/09/06 08:32:59;;;;;;;9.68;7.65;;;;;;;21.75;84.45;102010.63;6185297;23;20071;-78
2023/09/06 08:35:26;;;;;;;10.70;7.00;;;;;;;21.83;83.82;101999.38;6185019;23;20355;-79
2023/09/06 08:37:51;;;;;;;9.98;6.82;;;;;;;21.98;85.11;102003.25;6185476;23;20072;-80
2023/09/06 08:40:18;;;;;;;9.38;6.70;;;;;;;22.04;84.06;102002.69;6185148;23;20073;-79
2023/09/06 08:42:44;;;;;;;11.18;7.22;;;;;;;22.02;84.68;101992.31;6184896;23;20012;-78
2023/09/06 08:45:10;;;;;;;9.60;6.80;;;;;;;22.19;84.52;102003.06;6185149;23;20012;-77
2023/09/06 08:47:39;;;;;;;9.73;6.90;;;;;;;22.17;86.55;101984.81;6185485;23;20042;-76
2023/09/06 08:50:09;;;;;;;9.70;6.53;;;;;;;22.31;85.34;102002.75;6184691;23;20013;-76
2023/09/06 08:52:37;;;;;;;12.27;9.05;;;;;;;22.29;83.72;101995.97;6185123;23;20075;-78
2023/09/06 08:55:04;;;;;;;10.27;7.88;;;;;;;22.44;84.09;102009.50;6184854;23;20005;-76
2023/09/06 08:57:31;;;;;;;10.68;7.97;;;;;;;22.29;84.70;101974.91;6184741;23;20067;-79
2023/09/06 08:59:58;;;;;;;8.23;6.85;;;;;;;22.54;83.72;102003.22;6185201;23;20442;-78
2023/09/06 09:02:23;;;;;;;8.77;6.82;;;;;;;22.66;82.04;102005.66;6185407;23;20031;-77
2023/09/06 09:04:49;;;;;;;11.35;7.22;;;;;;;22.52;79.43;101984.13;6184585;23;20443;-81
2023/09/06 09:07:18;;;;;;;8.50;5.63;;;;;;;22.58;79.41;101982.69;6184695;23;20008;-79
2023/09/06 09:10:04;;;;;;;9.27;6.75;;;;;;;22.81;79.15;102004.16;6185269;23;20189;-78
2023/09/06 09:12:31;;;;;;;10.73;6.00;;;;;;;22.60;77.72;101968.38;6184347;23;20328;-80
2023/09/06 09:14:58;;;;;;;9.13;5.68;;;;;;;22.89;80.05;102004.28;6184209;23;20008;-77
2023/09/06 09:17:24;;;;;;;11.00;5.78;;;;;;;22.92;77.10;102005.81;6185069;23;20005;-79
2023/09/06 09:19:56;;;;;;;8.48;5.40;;;;;;;23.01;78.12;102005.75;6184995;23;20025;-79
2023/09/06 09:22:30;;;;;;;9.50;5.03;;;;;;;23.11;78.00;102011.78;6184621;23;20323;-80
2023/09/06 09:25:14;;;;;;;7.10;4.60;;;;;;;23.17;78.31;102008.53;6158019;23;20012;-79
2023/09/06 09:27:42;;;;;;;6.22;4.35;;;;;;;23.19;74.28;102005.75;6185342;23;20327;-76
2023/09/06 09:30:08;;;;;;;7.15;4.90;;;;;;;23.31;74.52;102004.56;6184747;23;20005;-80
2023/09/06 09:32:34;;;;;;;9.38;5.72;;;;;;;23.33;73.97;102004.41;6184990;23;20327;-79
2023/09/06 09:34:59;;;;;;;8.13;4.72;;;;;;;23.51;72.88;102001.75;6184733;23;20005;-78
2023/09/06 09:37:29;;;;;;;8.73;4.97;;;;;;;23.44;71.13;101993.63;6158131;23;20449;-80
2023/09/06 09:39:55;;;;;;;9.60;4.60;;;;;;;23.46;71.51;101984.56;6184660;23;20088;-79
2023/09/06 09:42:20;;;;;;;8.27;4.22;;;;;;;23.62;70.63;102007.63;6184858;23;20040;-81
2023/09/06 09:44:59;;;;;;;6.85;3.70;;;;;;;23.59;73.02;101992.09;6184870;23;20001;-77
2023/09/06 09:47:27;;;;;;;5.47;3.58;;;;;;;23.75;72.82;101999.31;6184783;23;20009;-78
2023/09/06 09:49:54;;;;;;;8.85;4.10;;;;;;;23.72;70.49;102000.47;6184426;23;20028;-81
2023/09/06 09:52:20;;;;;;;6.88;3.47;;;;;;;23.75;69.54;101999.31;6184046;23;20434;-80
2023/09/06 09:54:47;;;;;;;7.80;3.10;;;;;;;23.70;66.41;101978.69;6184910;23;20005;-78
2023/09/06 09:57:13;;;;;;;11.02;4.35;;;;;;;23.82;69.23;101997.72;6184767;23;20012;-79
2023/09/06 09:59:40;;;;;;;7.82;4.05;;;;;;;23.85;68.74;102002.69;6184893;23;20005;-78
2023/09/06 10:02:09;;;;;;;8.60;3.83;;;;;;;23.91;71.37;101996.81;6185070;23;20087;-78
2023/09/06 10:04:36;;;;;;;7.57;4.10;;;;;;;23.46;70.05;101923.94;6122605;23;20014;-80
2023/09/06 10:09:39;;;;;;;7.85;4.63;;;;;;;23.51;70.14;101917.38;6179056;23;20028;-82
2023/09/06 10:12:26;;;;;;;6.65;4.50;;;;;;;24.05;71.72;101995.38;6184705;23;20076;-81
2023/09/06 10:14:58;;;;;;;6.55;4.10;;;;;;;23.19;73.06;101837.91;6184867;23;20027;-80
2023/09/06 10:17:24;;;;;;;7.63;4.25;;;;;;;23.54;71.69;101885.44;6184685;23;20009;-79
2023/09/06 10:19:49;;;;;;;10.68;5.10;;;;;;;23.55;69.04;101876.53;6184572;23;20227;-80
2023/09/06 10:22:24;;;;;;;9.20;4.57;;;;;;;24.22;72.10;101962.81;6184422;23;20056;-80
2023/09/06 10:24:55;;;;;;;8.98;4.40;;;;;;;24.39;69.67;101987.50;6185998;23;20001;-79
2023/09/06 10:27:33;;;;;;;6.78;4.57;;;;;;;23.79;70.25;101879.31;6186779;23;20005;-79
2023/09/06 10:30:28;;;;;;;7.60;4.22;;;;;;;24.30;71.52;101947.03;6186610;23;20452;-80
2023/09/06 10:33:36;;;;;;;7.47;4.78;;;;;;;24.58;69.84;101984.63;6160011;23;20005;-80
2023/09/06 10:36:17;;;;;;;6.78;3.72;;;;;;;24.53;71.07;101955.19;6125168;23;20082;-81
2023/09/06 10:38:55;;;;;;;8.90;4.40;;;;;;;24.73;68.51;101989.25;6186041;23;20001;-82
2023/09/06 10:41:26;;;;;;;6.65;4.40;;;;;;;24.72;66.93;101985.78;6159504;23;20005;-80
2023/09/06 10:43:57;;;;;;;6.82;3.88;;;;;;;24.81;68.98;101982.19;6186755;23;20005;-79
2023/09/06 10:46:30;;;;;;;8.38;4.60;;;;;;;24.85;68.12;101975.59;6186209;23;20001;-78
2023/09/06 10:49:28;;;;;;;8.13;4.63;;;;;;;24.93;68.26;101979.22;6186094;23;20005;-79
2023/09/06 10:52:01;;;;;;;7.95;4.55;;;;;;;25.00;67.18;101974.97;6065719;23;20480;-77
2023/09/06 10:54:34;;;;;;;8.13;4.30;;;;;;;25.10;70.14;101968.56;6066384;23;20006;-80
2023/09/06 10:57:02;;;;;;;8.23;4.07;;;;;;;25.14;68.48;101966.41;6066057;23;20095;-79
2023/09/06 10:59:28;;;;;;;8.45;4.53;;;;;;;25.14;67.36;101966.41;6066523;23;20007;-78
2023/09/06 11:02:07;;;;;;;5.78;4.30;;;;;;;24.98;67.17;101930.19;6066512;23;20037;-79
2023/09/06 11:04:32;;;;;;;7.47;4.53;;;;;;;25.23;67.03;101964.59;6066228;23;20007;-79
2023/09/06 11:06:58;;;;;;;7.70;4.07;;;;;;;25.33;67.41;101967.91;6065853;23;20022;-80
2023/09/06 11:09:25;;;;;;;8.48;4.80;;;;;;;25.19;67.68;101927.09;6042310;23;20058;-77
2023/09/06 11:11:52;;;;;;;8.52;5.35;;;;;;;25.51;66.03;101970.38;6066346;23;20006;-77
2023/09/06 11:14:17;;;;;;;9.18;5.78;;;;;;;25.45;65.63;101961.28;6066135;23;20075;-77
2023/09/06 11:16:46;;;;;;;7.85;4.65;;;;;;;25.55;67.11;101966.38;6066231;23;20015;-80
2023/09/06 11:19:12;;;;;;;7.28;4.10;;;;;;;25.60;65.15;101962.25;6066221;23;20074;-82
2023/09/06 11:21:38;;;;;;;5.13;3.72;;;;;;;25.68;64.33;101969.38;6066414;23;20011;-81
2023/09/06 11:24:03;;;;;;;8.10;3.85;;;;;;;25.68;64.69;101964.06;6066326;23;20007;-82